createdAt,value
2019-06-07T00:01:51.656Z,3.40
2019-06-07T00:04:25.114Z,2.92
2019-06-07T00:06:59.488Z,3.00
2019-06-07T00:09:32.731Z,2.77
2019-06-07T00:12:09.072Z,3.37
2019-06-07T00:14:41.386Z,2.85
2019-06-07T00:17:17.202Z,2.52
2019-06-07T00:19:50.243Z,2.35
2019-06-07T00:22:33.122Z,2.77
2019-06-07T00:24:59.003Z,3.67
2019-06-07T00:27:32.387Z,3.05
2019-06-07T00:30:40.114Z,2.60
2019-06-07T00:32:47.589Z,2.42
2019-06-07T00:35:22.438Z,2.62
2019-06-07T00:37:56.057Z,2.75
2019-06-07T00:40:32.046Z,3.15
2019-06-07T00:43:04.339Z,2.95
2019-06-07T00:45:37.637Z,2.20
2019-06-07T00:48:21.357Z,3.00
2019-06-07T00:50:45.990Z,2.67
2019-06-07T00:53:29.155Z,3.35
2019-06-07T00:55:54.711Z,3.20
2019-06-07T00:58:29.557Z,2.50
2019-06-07T01:01:03.109Z,2.83
2019-06-07T01:03:36.381Z,2.70
2019-06-07T01:06:09.574Z,3.75
2019-06-07T01:08:42.889Z,2.72
2019-06-07T01:11:18.542Z,3.20
2019-06-07T01:13:51.478Z,2.80
2019-06-07T01:16:26.425Z,3.00
2019-06-07T01:18:59.873Z,2.58
2019-06-07T01:21:33.272Z,2.45
2019-06-07T01:24:12.465Z,2.35
2019-06-07T01:26:41.873Z,2.85
2019-06-07T01:29:17.709Z,1.92
2019-06-07T01:31:50.353Z,2.52
2019-06-07T01:34:26.808Z,3.05
2019-06-07T01:36:58.861Z,2.37
2019-06-07T01:39:32.344Z,3.02
2019-06-07T01:42:05.833Z,3.10
2019-06-07T01:44:39.211Z,2.50
2019-06-07T01:47:12.641Z,3.33
2019-06-07T01:49:46.070Z,2.62
2019-06-07T01:52:20.074Z,2.40
2019-06-07T01:54:58.662Z,2.65
2019-06-07T01:57:44.834Z,2.15
2019-06-07T02:00:08.761Z,2.52
2019-06-07T02:02:42.218Z,3.33
2019-06-07T02:05:15.675Z,2.60
2019-06-07T02:07:49.037Z,2.70
2019-06-07T02:10:26.123Z,2.95
2019-06-07T02:12:58.107Z,2.58
2019-06-07T02:15:36.425Z,2.58
2019-06-07T02:18:06.517Z,2.20
2019-06-07T02:20:39.902Z,2.67
2019-06-07T02:23:13.262Z,2.45
2019-06-07T02:25:50.479Z,3.17
2019-06-07T02:28:30.084Z,2.95
2019-06-07T02:30:59.957Z,2.40
2019-06-07T02:33:39.139Z,3.00
2019-06-07T02:36:07.016Z,3.00
2019-06-07T02:38:40.481Z,3.45
2019-06-07T02:41:13.876Z,2.95
2019-06-07T02:43:47.260Z,4.12
2019-06-07T02:46:32.533Z,5.33
2019-06-07T02:48:59.871Z,6.12
2019-06-07T02:51:40.722Z,6.30
2019-06-07T02:54:08.395Z,7.40
2019-06-07T02:56:56.149Z,7.08
2019-06-07T02:59:17.132Z,6.92
2019-06-07T03:01:50.879Z,8.50
2019-06-07T03:04:28.556Z,7.75
2019-06-07T03:07:02.774Z,7.60
2019-06-07T03:09:37.071Z,7.37
2019-06-07T03:12:12.779Z,6.75
2019-06-07T03:14:46.416Z,6.87
2019-06-07T03:17:21.291Z,6.42
2019-06-07T03:19:57.016Z,6.55
2019-06-07T03:22:32.681Z,6.53
2019-06-07T03:25:07.707Z,7.30
